McCall, ID

1:16 AM MST on December 22, 2014 (GMT -0700)
Ontario Municipal | Change Station
CLOSE
Current Station
Airport
Location: Ontario,
Elevation: 2192 ft
Nearby Weather Stations
Active Advisory: Avalanche Warning Active Notice: Record Report

Elev 2192 ft 44.02 °N, 117.01 °W | Updated 23 minutes ago

Overcast
Overcast
42 °F
Feels Like 38 °F
N
6
Wind Variable Wind from SSE

Today
High -- | Low -- °F
--% Chance of Precip.
Yesterday
High -- | Low -- °F
Precip. -- in
8:19 AM 5:06 PM
New Moon, 0% visible
Pressure 30.14 in
Visibility 8.0 miles
Clouds Few 900 ft
Mostly Cloudy 6000 ft
Overcast 9000 ft
Windchill 38 °F
Dew Point 40 °F
Humidity 92%
Rainfall 0.01 in
Snow Depth Not available.
UV 0 out of 12
Pollen .10 out of 12
Air Quality Not available.
Flu Activity Not available.
METAR KONO 220753Z AUTO 15005KT 8SM -RA FEW009 BKN060 OVC090 06/04 A3011 RMK AO2 SLP205 P0001 T00560044

More Conditions Fewer Conditions

Pressure 30.14 in
Visibility 8.0 miles
Clouds Few 900 ft
Mostly Cloudy 6000 ft
Overcast 9000 ft
Windchill 38 °F
Dew Point 40 °F
Humidity 92%
Rainfall 0.01 in
Snow Depth Not available.
UV 0 out of 12
Pollen .10 out of 12
Air Quality Not available.
Flu Activity Not available.
METAR KONO 220753Z AUTO 15005KT 8SM -RA FEW009 BKN060 OVC090 06/04 A3011 RMK AO2 SLP205 P0001 T00560044

More Conditions Fewer Conditions

10-Day Weather Forecast

Almanac

Astronomy

Dec. 22, 2014 Rise Set
Actual Time
Civil Twilight
Nautical Twilight
Astronomical Twilight
Moon
Length of Visible Light
Length of Day
Tomorrow will be .
, % of the Moon is Illuminated

Today's Extremes

State Highs State Lows

Community

WunderPhotos

Upload Photos

1,779,564 photos uploaded!

WunderBlogs® & News

Nearby

Air Quality

  Air Quality AQ Index Pollutant
Not available.

Snow Depth

Station Depth Elevation

Earthquake Activity

City Distance Mag. Time & Date
Minimum magnitude displayed is 2.5.

Coastal Water Temperatures

Place Temperature

Nearby Weather Stations